createdAt,value
2022-10-28T00:00:44.052Z,97843.44
2022-10-28T00:06:11.725Z,97846.69
2022-10-28T00:11:34.542Z,97844.19
2022-10-28T00:16:55.232Z,97846.47
2022-10-28T00:22:15.766Z,97848.16
2022-10-28T00:27:36.549Z,97851.00
2022-10-28T00:32:57.133Z,97851.38
2022-10-28T00:38:17.679Z,97845.63
2022-10-28T00:43:47.177Z,97840.78
2022-10-28T00:49:21.382Z,97841.63
2022-10-28T00:54:43.916Z,97857.44
2022-10-28T01:00:07.032Z,97845.69
2022-10-28T01:05:32.308Z,97844.50
2022-10-28T01:11:08.380Z,97831.31
2022-10-28T01:16:45.457Z,97834.72
2022-10-28T01:28:06.622Z,97835.72
2022-10-28T01:33:36.507Z,97838.91
2022-10-28T01:39:10.553Z,97841.16
2022-10-28T01:45:01.346Z,97829.41
2022-10-28T01:50:29.510Z,97838.94
2022-10-28T01:55:54.040Z,97833.94
2022-10-28T02:01:15.940Z,97823.63
2022-10-28T02:06:38.239Z,97811.16
2022-10-28T02:12:07.812Z,97811.38
2022-10-28T02:17:47.467Z,97807.22
2022-10-28T02:23:29.366Z,97800.19
2022-10-28T02:28:57.641Z,97795.00
2022-10-28T02:34:24.624Z,97799.63
2022-10-28T02:39:52.461Z,97801.53
2022-10-28T02:45:21.174Z,97804.25
2022-10-28T02:50:46.182Z,97812.34
2022-10-28T02:56:09.505Z,97815.19
2022-10-28T03:01:30.190Z,97819.00
2022-10-28T03:06:50.803Z,97810.31
2022-10-28T03:12:11.977Z,97798.09
2022-10-28T03:17:32.846Z,97805.22
2022-10-28T03:22:53.648Z,97797.50
2022-10-28T03:28:14.577Z,97792.16
2022-10-28T03:33:35.501Z,97788.59
2022-10-28T03:38:56.525Z,97791.22
2022-10-28T03:44:16.975Z,97792.16
2022-10-28T03:49:37.659Z,97778.88
2022-10-28T03:54:58.363Z,97785.41
2022-10-28T04:00:19.617Z,97779.69
2022-10-28T04:05:40.118Z,97772.22
2022-10-28T04:11:00.718Z,97768.03
2022-10-28T04:16:21.249Z,97771.94
2022-10-28T04:21:41.975Z,97762.97
2022-10-28T04:27:02.469Z,97767.00
2022-10-28T04:32:23.152Z,97769.97
2022-10-28T04:37:43.816Z,97789.63
2022-10-28T04:43:08.513Z,97772.66
2022-10-28T04:48:30.750Z,97775.28
2022-10-28T04:53:51.465Z,97761.28
2022-10-28T04:59:12.268Z,97763.53
2022-10-28T05:04:32.846Z,97754.75
2022-10-28T05:09:53.488Z,97754.97
2022-10-28T05:15:15.131Z,97756.78
2022-10-28T05:20:35.812Z,97764.00
2022-10-28T05:25:56.370Z,97760.69
2022-10-28T05:31:17.794Z,97762.47
2022-10-28T05:36:38.748Z,97766.16
2022-10-28T05:41:59.546Z,97766.50
2022-10-28T05:47:20.114Z,97763.50
2022-10-28T05:52:40.713Z,97766.91
2022-10-28T05:58:01.551Z,97764.84
2022-10-28T06:03:24.097Z,97763.91
2022-10-28T06:08:49.058Z,97768.19
2022-10-28T06:14:08.300Z,97771.94
2022-10-28T06:19:28.779Z,97774.97
2022-10-28T06:24:49.429Z,97781.06
2022-10-28T06:30:10.801Z,97782.22
2022-10-28T06:35:31.640Z,97782.22
2022-10-28T06:40:52.844Z,97774.63
2022-10-28T06:46:13.828Z,97784.84
2022-10-28T06:51:36.029Z,97789.22
2022-10-28T06:56:59.643Z,97783.56
2022-10-28T07:02:20.685Z,97789.53
2022-10-28T07:07:41.199Z,97795.28
2022-10-28T07:13:01.856Z,97788.41
2022-10-28T07:18:23.634Z,97797.06
2022-10-28T07:23:46.775Z,97809.38
2022-10-28T07:29:07.752Z,97809.91
2022-10-28T07:34:28.277Z,97824.88
2022-10-28T07:39:50.246Z,97824.97
2022-10-28T07:45:11.079Z,97837.22
2022-10-28T07:50:31.915Z,97838.28
2022-10-28T07:56:01.342Z,97849.00
2022-10-28T08:01:22.696Z,97853.66
2022-10-28T08:06:44.377Z,97861.09
2022-10-28T08:12:05.858Z,97865.25
2022-10-28T08:17:26.587Z,97861.78
2022-10-28T08:22:47.490Z,97865.41
2022-10-28T08:28:08.097Z,97861.16
2022-10-28T08:33:28.519Z,97848.38
2022-10-28T08:38:49.192Z,97841.31
2022-10-28T08:44:15.836Z,97839.84
2022-10-28T08:49:42.462Z,97841.09
2022-10-28T08:55:07.738Z,97840.63
2022-10-28T09:00:31.582Z,97842.13
2022-10-28T09:06:11.034Z,97839.25
2022-10-28T09:12:07.008Z,97836.34
2022-10-28T09:17:53.457Z,97836.88
2022-10-28T09:23:29.810Z,97849.44
2022-10-28T09:29:18.513Z,97847.03
2022-10-28T09:35:06.476Z,97856.19
2022-10-28T09:40:33.945Z,97846.09
2022-10-28T09:46:01.010Z,97844.19
2022-10-28T09:52:01.830Z,97844.03
2022-10-28T09:57:29.515Z,97835.91
2022-10-28T10:02:55.444Z,97828.69
2022-10-28T10:08:19.045Z,97827.91
2022-10-28T10:13:43.468Z,97835.88
2022-10-28T10:19:07.519Z,97829.06
2022-10-28T10:24:36.086Z,97829.59
2022-10-28T10:29:58.334Z,97820.63
2022-10-28T10:35:24.856Z,97830.28
2022-10-28T10:40:52.921Z,97821.06
2022-10-28T10:46:16.452Z,97820.56
2022-10-28T10:51:40.185Z,97806.28
2022-10-28T10:57:22.772Z,97799.06
2022-10-28T11:02:49.019Z,97787.41
2022-10-28T11:08:26.643Z,97764.47
2022-10-28T11:13:49.252Z,97759.84
2022-10-28T11:19:24.196Z,97751.41
2022-10-28T11:25:00.304Z,97747.84
2022-10-28T11:30:29.504Z,97740.97
2022-10-28T11:36:15.247Z,97733.38
2022-10-28T11:41:53.579Z,97730.13
2022-10-28T11:47:50.578Z,97720.06
2022-10-28T11:53:37.266Z,97726.19
2022-10-28T11:59:33.858Z,97730.97
2022-10-28T12:05:12.994Z,97725.50
2022-10-28T12:10:46.414Z,97733.78
2022-10-28T12:16:13.213Z,97723.25
2022-10-28T12:21:42.194Z,97718.63
2022-10-28T12:27:25.669Z,97714.66
2022-10-28T12:32:49.944Z,97712.00
2022-10-28T12:38:16.719Z,97702.28
2022-10-28T12:43:42.631Z,97707.25
2022-10-28T12:49:11.682Z,97702.16
2022-10-28T12:54:53.654Z,97701.00
2022-10-28T13:00:28.137Z,97696.22
2022-10-28T13:05:57.709Z,97687.81
2022-10-28T13:11:21.401Z,97676.88
2022-10-28T13:17:08.343Z,97673.72
2022-10-28T13:22:55.461Z,97672.72
2022-10-28T13:28:19.356Z,97671.72
2022-10-28T13:33:50.675Z,97673.03
2022-10-28T13:39:24.932Z,97666.09
2022-10-28T13:44:55.457Z,97663.13
2022-10-28T13:50:22.454Z,97663.47
2022-10-28T13:55:45.034Z,97670.03
2022-10-28T14:01:43.463Z,97662.78
2022-10-28T14:07:17.430Z,97668.75
2022-10-28T14:12:43.376Z,97673.56
2022-10-28T14:24:09.303Z,97658.59
2022-10-28T14:29:30.231Z,97662.25
2022-10-28T14:34:51.177Z,97665.72
2022-10-28T14:40:23.595Z,97659.44
2022-10-28T14:46:13.893Z,97669.34
2022-10-28T14:51:41.153Z,97666.03
2022-10-28T14:57:01.899Z,97661.75
2022-10-28T15:02:28.636Z,97665.38
2022-10-28T15:07:50.102Z,97658.47
2022-10-28T15:13:16.755Z,97661.09
2022-10-28T15:18:47.201Z,97662.38
2022-10-28T15:24:13.397Z,97664.03
2022-10-28T15:29:34.606Z,97651.00
2022-10-28T15:34:55.636Z,97642.59
2022-10-28T15:40:28.912Z,97647.38
2022-10-28T15:45:50.142Z,97646.72
2022-10-28T15:51:19.234Z,97649.00
2022-10-28T15:57:00.404Z,97644.53
2022-10-28T16:02:43.278Z,97646.78
2022-10-28T16:08:08.086Z,97652.53
2022-10-28T16:13:48.169Z,97662.38
2022-10-28T16:19:17.296Z,97655.06
2022-10-28T16:24:38.105Z,97658.41
2022-10-28T16:29:58.890Z,97654.22
2022-10-28T16:35:22.029Z,97658.78
2022-10-28T16:40:51.342Z,97666.00
2022-10-28T16:46:13.525Z,97665.56
2022-10-28T16:51:34.519Z,97658.44
2022-10-28T16:56:55.078Z,97669.84
2022-10-28T17:02:22.564Z,97662.94
2022-10-28T17:07:43.597Z,97661.06
2022-10-28T17:13:04.298Z,97665.41
2022-10-28T17:18:25.121Z,97662.03
2022-10-28T17:23:45.753Z,97669.16
2022-10-28T17:29:07.297Z,97660.06
2022-10-28T17:34:27.987Z,97665.56
2022-10-28T17:39:48.768Z,97652.44
2022-10-28T17:45:11.329Z,97643.78
2022-10-28T17:50:31.965Z,97649.19
2022-10-28T17:55:59.390Z,97657.00
2022-10-28T18:01:20.229Z,97648.06
2022-10-28T18:06:42.283Z,97644.16
2022-10-28T18:12:03.464Z,97641.59
2022-10-28T18:17:24.466Z,97640.81
2022-10-28T18:22:45.796Z,97649.03
2022-10-28T18:28:06.301Z,97644.06
2022-10-28T18:33:32.325Z,97641.38
2022-10-28T18:38:53.428Z,97636.34
2022-10-28T18:44:17.055Z,97634.91
2022-10-28T18:49:38.164Z,97624.00
2022-10-28T18:55:00.570Z,97633.19
2022-10-28T19:00:21.492Z,97629.25
2022-10-28T19:05:42.437Z,97633.38
2022-10-28T19:11:03.582Z,97619.03
2022-10-28T19:16:27.164Z,97618.84
2022-10-28T19:21:48.360Z,97615.63
2022-10-28T19:27:09.063Z,97617.56
2022-10-28T19:32:30.665Z,97623.78
2022-10-28T19:37:55.504Z,97613.84
2022-10-28T19:43:16.221Z,97614.53
2022-10-28T19:48:38.964Z,97624.63
2022-10-28T19:54:01.875Z,97622.41
2022-10-28T19:59:22.911Z,97634.16
2022-10-28T20:04:43.757Z,97634.16
2022-10-28T20:10:05.187Z,97639.28
2022-10-28T20:15:25.935Z,97633.06
2022-10-28T20:20:46.564Z,97641.91
2022-10-28T20:26:07.633Z,97635.69
2022-10-28T20:31:30.186Z,97639.28
2022-10-28T20:36:51.276Z,97634.06
2022-10-28T20:42:11.961Z,97636.88
2022-10-28T20:47:32.554Z,97636.41
2022-10-28T20:52:53.352Z,97644.97
2022-10-28T20:58:14.448Z,97637.34
2022-10-28T21:03:35.053Z,97624.66
2022-10-28T21:08:56.763Z,97611.19
2022-10-28T21:14:17.568Z,97614.09
2022-10-28T21:19:38.423Z,97620.19
2022-10-28T21:24:59.045Z,97631.72
2022-10-28T21:30:19.743Z,97635.81
2022-10-28T21:35:40.810Z,97635.00
2022-10-28T21:41:22.904Z,97622.34
2022-10-28T21:46:43.880Z,97621.78
2022-10-28T21:52:13.889Z,97622.31
2022-10-28T21:57:34.501Z,97619.47
2022-10-28T22:02:55.124Z,97618.91
2022-10-28T22:08:16.435Z,97617.13
2022-10-28T22:13:37.403Z,97611.19
2022-10-28T22:18:59.464Z,97601.84
2022-10-28T22:24:20.380Z,97624.50
2022-10-28T22:29:41.094Z,97625.75
2022-10-28T22:35:01.820Z,97623.56
2022-10-28T22:40:22.631Z,97631.44
2022-10-28T22:45:43.406Z,97630.03
2022-10-28T22:51:05.159Z,97619.53
2022-10-28T22:56:27.547Z,97616.59
2022-10-28T23:01:48.390Z,97627.22
2022-10-28T23:07:09.332Z,97625.72
2022-10-28T23:12:29.897Z,97633.06
2022-10-28T23:17:51.602Z,97632.34
2022-10-28T23:23:12.158Z,97637.84
2022-10-28T23:28:33.013Z,97651.66
2022-10-28T23:33:54.983Z,97644.34
2022-10-28T23:39:15.599Z,97653.34
2022-10-28T23:44:36.326Z,97645.59
2022-10-28T23:49:56.907Z,97634.81
2022-10-28T23:55:17.608Z,97625.44
